sensor_id;sensor_type;location;lat;lon;timestamp;pressure;altitude;pressure_sealevel;temperature;humidity
43757;BME280;73222;41.866;12.462;2023-11-19T00:01:34;101841.50;;;9.02;100.00
43757;BME280;73222;41.866;12.462;2023-11-19T00:04:00;101841.31;;;8.96;100.00
43757;BME280;73222;41.866;12.462;2023-11-19T00:06:25;101848.09;;;8.92;100.00
43757;BME280;73222;41.866;12.462;2023-11-19T00:08:51;101848.19;;;8.96;100.00
43757;BME280;73222;41.866;12.462;2023-11-19T00:11:16;101854.06;;;8.90;100.00
43757;BME280;73222;41.866;12.462;2023-11-19T00:13:41;101844.38;;;8.84;100.00
43757;BME280;73222;41.866;12.462;2023-11-19T00:16:08;101837.41;;;8.80;100.00
43757;BME280;73222;41.866;12.462;2023-11-19T00:18:35;101835.53;;;8.76;100.00
43757;BME280;73222;41.866;12.462;2023-11-19T00:21:01;101828.53;;;8.72;100.00
43757;BME280;73222;41.866;12.462;2023-11-19T00:23:27;101830.28;;;8.73;100.00
43757;BME280;73222;41.866;12.462;2023-11-19T00:25:52;101818.00;;;8.65;100.00
43757;BME280;73222;41.866;12.462;2023-11-19T00:28:18;101819.56;;;8.60;100.00
43757;BME280;73222;41.866;12.462;2023-11-19T00:30:43;101817.88;;;8.61;100.00
43757;BME280;73222;41.866;12.462;2023-11-19T00:33:08;101821.22;;;8.58;100.00
43757;BME280;73222;41.866;12.462;2023-11-19T00:35:34;101834.88;;;8.54;100.00
43757;BME280;73222;41.866;12.462;2023-11-19T00:37:59;101815.97;;;8.55;100.00
43757;BME280;73222;41.866;12.462;2023-11-19T00:40:27;101818.38;;;8.50;100.00
43757;BME280;73222;41.866;12.462;2023-11-19T00:42:52;101822.78;;;8.53;100.00
43757;BME280;73222;41.866;12.462;2023-11-19T00:45:18;101829.47;;;8.48;100.00
43757;BME280;73222;41.866;12.462;2023-11-19T00:47:43;101834.53;;;8.45;100.00
43757;BME280;73222;41.866;12.462;2023-11-19T00:50:09;101829.34;;;8.45;100.00
43757;BME280;73222;41.866;12.462;2023-11-19T00:52:35;101836.19;;;8.43;100.00
43757;BME280;73222;41.866;12.462;2023-11-19T00:55:01;101837.94;;;8.44;100.00
43757;BME280;73222;41.866;12.462;2023-11-19T00:57:27;101834.34;;;8.38;100.00
43757;BME280;73222;41.866;12.462;2023-11-19T00:59:52;101841.19;;;8.38;100.00
43757;BME280;73222;41.866;12.462;2023-11-19T01:02:18;101841.94;;;8.34;100.00
43757;BME280;73222;41.866;12.462;2023-11-19T01:04:43;101840.22;;;8.34;100.00
43757;BME280;73222;41.866;12.462;2023-11-19T01:07:09;101832.38;;;8.31;100.00
43757;BME280;73222;41.866;12.462;2023-11-19T01:09:38;101829.75;;;8.30;100.00
43757;BME280;73222;41.866;12.462;2023-11-19T01:12:04;101828.78;;;8.26;100.00
43757;BME280;73222;41.866;12.462;2023-11-19T01:14:30;101832.09;;;8.22;100.00
43757;BME280;73222;41.866;12.462;2023-11-19T01:16:55;101833.72;;;8.20;100.00
43757;BME280;73222;41.866;12.462;2023-11-19T01:19:21;101826.81;;;8.19;100.00
43757;BME280;73222;41.866;12.462;2023-11-19T01:21:47;101835.28;;;8.15;100.00
43757;BME280;73222;41.866;12.462;2023-11-19T01:24:14;101822.41;;;8.15;100.00
43757;BME280;73222;41.866;12.462;2023-11-19T01:26:41;101816.19;;;8.09;100.00
43757;BME280;73222;41.866;12.462;2023-11-19T01:29:15;101814.44;;;8.08;100.00
43757;BME280;73222;41.866;12.462;2023-11-19T01:31:46;101810.13;;;8.07;100.00
43757;BME280;73222;41.866;12.462;2023-11-19T01:34:16;101807.31;;;8.01;100.00
43757;BME280;73222;41.866;12.462;2023-11-19T01:36:46;101802.91;;;7.97;100.00
43757;BME280;73222;41.866;12.462;2023-11-19T01:39:11;101802.78;;;7.94;100.00
43757;BME280;73222;41.866;12.462;2023-11-19T01:41:37;101805.34;;;7.94;100.00
43757;BME280;73222;41.866;12.462;2023-11-19T01:44:05;101811.44;;;7.96;100.00
43757;BME280;73222;41.866;12.462;2023-11-19T01:46:31;101801.84;;;7.92;100.00
43757;BME280;73222;41.866;12.462;2023-11-19T01:48:58;101800.81;;;7.87;100.00
43757;BME280;73222;41.866;12.462;2023-11-19T01:51:25;101799.91;;;7.84;100.00
43757;BME280;73222;41.866;12.462;2023-11-19T01:53:52;101794.75;;;7.84;100.00
43757;BME280;73222;41.866;12.462;2023-11-19T01:56:18;101798.97;;;7.82;100.00
43757;BME280;73222;41.866;12.462;2023-11-19T01:58:45;101786.91;;;7.81;100.00
43757;BME280;73222;41.866;12.462;2023-11-19T02:01:11;101784.44;;;7.84;100.00
43757;BME280;73222;41.866;12.462;2023-11-19T02:03:37;101784.38;;;7.83;100.00
43757;BME280;73222;41.866;12.462;2023-11-19T02:06:03;101780.94;;;7.82;100.00
43757;BME280;73222;41.866;12.462;2023-11-19T02:08:29;101785.03;;;7.77;100.00
43757;BME280;73222;41.866;12.462;2023-11-19T02:10:55;101779.94;;;7.79;100.00
43757;BME280;73222;41.866;12.462;2023-11-19T02:13:23;101772.09;;;7.76;100.00
43757;BME280;73222;41.866;12.462;2023-11-19T02:15:50;101767.81;;;7.76;100.00
43757;BME280;73222;41.866;12.462;2023-11-19T02:18:27;101772.16;;;7.77;100.00
43757;BME280;73222;41.866;12.462;2023-11-19T02:20:57;101757.34;;;7.72;100.00
43757;BME280;73222;41.866;12.462;2023-11-19T02:23:23;101761.63;;;7.71;100.00
43757;BME280;73222;41.866;12.462;2023-11-19T02:28:27;101748.59;;;7.66;100.00
43757;BME280;73222;41.866;12.462;2023-11-19T02:30:52;101755.53;;;7.69;100.00
43757;BME280;73222;41.866;12.462;2023-11-19T02:33:18;101759.66;;;7.64;100.00
43757;BME280;73222;41.866;12.462;2023-11-19T02:35:44;101769.19;;;7.66;100.00
43757;BME280;73222;41.866;12.462;2023-11-19T02:38:09;101759.66;;;7.64;100.00
43757;BME280;73222;41.866;12.462;2023-11-19T02:40:36;101761.31;;;7.62;100.00
43757;BME280;73222;41.866;12.462;2023-11-19T02:43:01;101750.91;;;7.59;100.00
43757;BME280;73222;41.866;12.462;2023-11-19T02:45:27;101755.16;;;7.58;100.00
43757;BME280;73222;41.866;12.462;2023-11-19T02:47:53;101755.94;;;7.55;100.00
43757;BME280;73222;41.866;12.462;2023-11-19T02:50:20;101747.38;;;7.56;100.00
43757;BME280;73222;41.866;12.462;2023-11-19T02:52:51;101755.06;;;7.55;100.00
43757;BME280;73222;41.866;12.462;2023-11-19T02:55:17;101761.00;;;7.52;100.00
43757;BME280;73222;41.866;12.462;2023-11-19T02:57:43;101761.00;;;7.52;100.00
43757;BME280;73222;41.866;12.462;2023-11-19T03:00:17;101762.75;;;7.53;100.00
43757;BME280;73222;41.866;12.462;2023-11-19T03:02:44;101768.72;;;7.52;100.00
43757;BME280;73222;41.866;12.462;2023-11-19T03:05:13;101762.75;;;7.53;100.00
43757;BME280;73222;41.866;12.462;2023-11-19T03:07:43;101753.19;;;7.51;100.00
43757;BME280;73222;41.866;12.462;2023-11-19T03:10:10;101753.31;;;7.54;100.00
43757;BME280;73222;41.866;12.462;2023-11-19T03:12:41;101746.53;;;7.56;100.00
43757;BME280;73222;41.866;12.462;2023-11-19T03:15:08;101744.00;;;7.58;100.00
43757;BME280;73222;41.866;12.462;2023-11-19T03:17:40;101742.13;;;7.53;100.00
43757;BME280;73222;41.866;12.462;2023-11-19T03:20:07;101737.75;;;7.51;100.00
43757;BME280;73222;41.866;12.462;2023-11-19T03:22:36;101741.28;;;7.53;100.00
43757;BME280;73222;41.866;12.462;2023-11-19T03:25:02;101736.88;;;7.50;100.00
43757;BME280;73222;41.866;12.462;2023-11-19T03:27:27;101743.03;;;7.54;100.00
43757;BME280;73222;41.866;12.462;2023-11-19T03:29:53;101747.19;;;7.50;100.00
43757;BME280;73222;41.866;12.462;2023-11-19T03:32:18;101735.22;;;7.52;100.00
43757;BME280;73222;41.866;12.462;2023-11-19T03:34:45;101736.88;;;7.50;100.00
43757;BME280;73222;41.866;12.462;2023-11-19T03:37:11;101734.31;;;7.50;100.00
43757;BME280;73222;41.866;12.462;2023-11-19T03:39:37;101737.72;;;7.49;100.00
43757;BME280;73222;41.866;12.462;2023-11-19T03:42:03;101735.78;;;7.43;100.00
43757;BME280;73222;41.866;12.462;2023-11-19T03:44:29;101724.59;;;7.43;100.00
43757;BME280;73222;41.866;12.462;2023-11-19T03:46:54;101730.78;;;7.48;100.00
43757;BME280;73222;41.866;12.462;2023-11-19T03:49:19;101730.78;;;7.48;100.00
43757;BME280;73222;41.866;12.462;2023-11-19T03:51:45;101724.59;;;7.43;100.00
43757;BME280;73222;41.866;12.462;2023-11-19T03:54:10;101733.03;;;7.39;100.00
43757;BME280;73222;41.866;12.462;2023-11-19T03:56:36;101731.19;;;7.35;100.00
43757;BME280;73222;41.866;12.462;2023-11-19T03:59:02;101729.44;;;7.34;100.00
43757;BME280;73222;41.866;12.462;2023-11-19T04:01:28;101733.81;;;7.36;100.00
43757;BME280;73222;41.866;12.462;2023-11-19T04:03:53;101736.22;;;7.32;100.00
43757;BME280;73222;41.866;12.462;2023-11-19T04:06:21;101739.53;;;7.27;100.00
43757;BME280;73222;41.866;12.462;2023-11-19T04:08:46;101737.78;;;7.26;100.00
43757;BME280;73222;41.866;12.462;2023-11-19T04:11:11;101729.22;;;7.27;100.00
43757;BME280;73222;41.866;12.462;2023-11-19T04:13:37;101719.75;;;7.26;100.00
43757;BME280;73222;41.866;12.462;2023-11-19T04:16:02;101718.00;;;7.25;100.00
43757;BME280;73222;41.866;12.462;2023-11-19T04:18:28;101723.34;;;7.32;100.00
43757;BME280;73222;41.866;12.462;2023-11-19T04:20:53;101720.56;;;7.25;100.00
43757;BME280;73222;41.866;12.462;2023-11-19T04:23:18;101717.94;;;7.24;100.00
43757;BME280;73222;41.866;12.462;2023-11-19T04:25:44;101724.94;;;7.28;100.00
43757;BME280;73222;41.866;12.462;2023-11-19T04:28:09;101719.75;;;7.26;100.00
43757;BME280;73222;41.866;12.462;2023-11-19T04:30:35;101712.03;;;7.26;100.00
43757;BME280;73222;41.866;12.462;2023-11-19T04:33:02;101721.44;;;7.26;100.00
43757;BME280;73222;41.866;12.462;2023-11-19T04:35:27;101725.72;;;7.25;100.00
43757;BME280;73222;41.866;12.462;2023-11-19T04:37:52;101720.66;;;7.28;100.00
43757;BME280;73222;41.866;12.462;2023-11-19T04:40:18;101712.03;;;7.26;100.00
43757;BME280;73222;41.866;12.462;2023-11-19T04:42:43;101702.47;;;7.24;100.00
43757;BME280;73222;41.866;12.462;2023-11-19T04:45:09;101717.03;;;7.23;100.00
43757;BME280;73222;41.866;12.462;2023-11-19T04:47:38;101711.78;;;7.20;100.00
43757;BME280;73222;41.866;12.462;2023-11-19T04:50:04;101714.47;;;7.23;100.00
43757;BME280;73222;41.866;12.462;2023-11-19T04:52:30;101717.03;;;7.23;100.00
43757;BME280;73222;41.866;12.462;2023-11-19T04:54:55;101720.34;;;7.19;100.00
43757;BME280;73222;41.866;12.462;2023-11-19T04:57:20;101719.53;;;7.20;100.00
43757;BME280;73222;41.866;12.462;2023-11-19T04:59:46;101714.44;;;7.22;100.00
43757;BME280;73222;41.866;12.462;2023-11-19T05:02:11;101718.59;;;7.18;100.00
43757;BME280;73222;41.866;12.462;2023-11-19T05:04:42;101715.34;;;7.24;100.00
43757;BME280;73222;41.866;12.462;2023-11-19T05:07:08;101710.03;;;7.19;100.00
43757;BME280;73222;41.866;12.462;2023-11-19T05:09:33;101704.75;;;7.16;100.00
43757;BME280;73222;41.866;12.462;2023-11-19T05:11:59;101700.41;;;7.13;100.00
43757;BME280;73222;41.866;12.462;2023-11-19T05:14:24;101694.28;;;7.10;100.00
43757;BME280;73222;41.866;12.462;2023-11-19T05:16:49;101694.31;;;7.11;100.00
43757;BME280;73222;41.866;12.462;2023-11-19T05:19:15;101691.69;;;7.10;100.00
43757;BME280;73222;41.866;12.462;2023-11-19T05:21:43;101699.28;;;7.07;100.00
43757;BME280;73222;41.866;12.462;2023-11-19T05:24:10;101699.28;;;7.07;100.00
43757;BME280;73222;41.866;12.462;2023-11-19T05:26:38;101700.06;;;7.04;100.00
43757;BME280;73222;41.866;12.462;2023-11-19T05:29:03;101702.00;;;7.10;100.00
43757;BME280;73222;41.866;12.462;2023-11-19T05:31:29;101697.78;;;7.12;100.00
43757;BME280;73222;41.866;12.462;2023-11-19T05:33:55;101695.91;;;7.08;100.00
43757;BME280;73222;41.866;12.462;2023-11-19T05:36:20;101703.59;;;7.06;100.00
43757;BME280;73222;41.866;12.462;2023-11-19T05:38:46;101701.88;;;7.07;100.00
43757;BME280;73222;41.866;12.462;2023-11-19T05:41:11;101703.59;;;7.06;100.00
43757;BME280;73222;41.866;12.462;2023-11-19T05:43:37;101704.56;;;7.10;100.00
43757;BME280;73222;41.866;12.462;2023-11-19T05:46:05;101703.59;;;7.06;100.00
43757;BME280;73222;41.866;12.462;2023-11-19T05:48:31;101703.63;;;7.08;100.00
43757;BME280;73222;41.866;12.462;2023-11-19T05:50:56;101695.09;;;7.09;100.00
43757;BME280;73222;41.866;12.462;2023-11-19T05:53:21;101704.56;;;7.10;100.00
43757;BME280;73222;41.866;12.462;2023-11-19T05:55:47;101698.59;;;7.11;100.00
43757;BME280;73222;41.866;12.462;2023-11-19T05:58:27;101707.19;;;7.11;100.00
43757;BME280;73222;41.866;12.462;2023-11-19T06:00:57;101708.06;;;7.12;100.00
43757;BME280;73222;41.866;12.462;2023-11-19T06:03:23;101716.66;;;7.12;100.00
43757;BME280;73222;41.866;12.462;2023-11-19T06:05:49;101699.59;;;7.14;100.00
43757;BME280;73222;41.866;12.462;2023-11-19T06:08:14;101718.47;;;7.15;100.00
43757;BME280;73222;41.866;12.462;2023-11-19T06:10:40;101711.78;;;7.20;100.00
43757;BME280;73222;41.866;12.462;2023-11-19T06:13:06;101710.13;;;7.22;100.00
43757;BME280;73222;41.866;12.462;2023-11-19T06:15:33;101718.00;;;7.25;100.00
43757;BME280;73222;41.866;12.462;2023-11-19T06:17:58;101721.66;;;7.32;100.00
43757;BME280;73222;41.866;12.462;2023-11-19T06:20:26;101706.50;;;7.41;100.00
43757;BME280;73222;41.866;12.462;2023-11-19T06:22:54;101711.97;;;7.51;100.00
43757;BME280;73222;41.866;12.462;2023-11-19T06:25:20;101710.59;;;7.61;100.00
43757;BME280;73222;41.866;12.462;2023-11-19T06:27:45;101707.66;;;7.76;100.00
43757;BME280;73222;41.866;12.462;2023-11-19T06:30:11;101703.19;;;7.97;100.00
43757;BME280;73222;41.866;12.462;2023-11-19T06:32:37;101703.19;;;8.25;100.00
43757;BME280;73222;41.866;12.462;2023-11-19T06:35:02;101699.84;;;8.29;100.00
43757;BME280;73222;41.866;12.462;2023-11-19T06:37:30;101699.34;;;8.39;100.00
43757;BME280;73222;41.866;12.462;2023-11-19T06:39:55;101694.06;;;8.36;100.00
43757;BME280;73222;41.866;12.462;2023-11-19T06:42:21;101700.06;;;8.35;100.00
43757;BME280;73222;41.866;12.462;2023-11-19T06:44:46;101701.00;;;8.37;100.00
43757;BME280;73222;41.866;12.462;2023-11-19T06:47:11;101695.28;;;8.48;100.00
43757;BME280;73222;41.866;12.462;2023-11-19T06:49:37;101695.28;;;8.48;100.00
43757;BME280;73222;41.866;12.462;2023-11-19T06:52:03;101705.59;;;8.48;100.00
43757;BME280;73222;41.866;12.462;2023-11-19T06:54:29;101710.50;;;8.68;100.00
43757;BME280;73222;41.866;12.462;2023-11-19T06:56:55;101712.03;;;8.91;100.00
43757;BME280;73222;41.866;12.462;2023-11-19T06:59:20;101715.53;;;9.26;100.00
43757;BME280;73222;41.866;12.462;2023-11-19T07:01:46;101713.66;;;9.51;100.00
43757;BME280;73222;41.866;12.462;2023-11-19T07:04:12;101709.41;;;9.89;100.00
43757;BME280;73222;41.866;12.462;2023-11-19T07:06:37;101708.78;;;10.37;100.00
43757;BME280;73222;41.866;12.462;2023-11-19T07:09:03;101698.41;;;11.71;100.00
43757;BME280;73222;41.866;12.462;2023-11-19T07:11:36;101693.31;;;13.03;100.00
43757;BME280;73222;41.866;12.462;2023-11-19T07:14:02;101698.41;;;13.79;100.00
43757;BME280;73222;41.866;12.462;2023-11-19T07:16:27;101688.38;;;14.48;100.00
43757;BME280;73222;41.866;12.462;2023-11-19T07:18:53;101691.72;;;14.22;100.00
43757;BME280;73222;41.866;12.462;2023-11-19T07:21:19;101691.47;;;13.81;100.00
43757;BME280;73222;41.866;12.462;2023-11-19T07:23:45;101693.75;;;13.45;100.00
43757;BME280;73222;41.866;12.462;2023-11-19T07:26:10;101697.41;;;13.68;100.00
43757;BME280;73222;41.866;12.462;2023-11-19T07:28:36;101691.38;;;13.70;100.00
43757;BME280;73222;41.866;12.462;2023-11-19T07:31:01;101698.22;;;13.60;100.00
43757;BME280;73222;41.866;12.462;2023-11-19T07:33:27;101688.66;;;13.59;100.00
43757;BME280;73222;41.866;12.462;2023-11-19T07:35:53;101695.16;;;13.14;100.00
43757;BME280;73222;41.866;12.462;2023-11-19T07:38:18;101698.75;;;12.49;100.00
43757;BME280;73222;41.866;12.462;2023-11-19T07:40:43;101698.31;;;12.18;100.00
43757;BME280;73222;41.866;12.462;2023-11-19T07:43:09;101702.34;;;12.02;100.00
43757;BME280;73222;41.866;12.462;2023-11-19T07:45:34;101710.28;;;12.08;100.00
43757;BME280;73222;41.866;12.462;2023-11-19T07:48:00;101711.75;;;11.92;100.00
43757;BME280;73222;41.866;12.462;2023-11-19T07:50:26;101720.53;;;12.02;100.00
43757;BME280;73222;41.866;12.462;2023-11-19T07:52:52;101719.13;;;12.86;100.00
43757;BME280;73222;41.866;12.462;2023-11-19T07:55:18;101726.41;;;13.18;100.00
43757;BME280;73222;41.866;12.462;2023-11-19T07:57:44;101722.63;;;13.75;100.00
43757;BME280;73222;41.866;12.462;2023-11-19T08:00:10;101713.88;;;15.13;100.00
43757;BME280;73222;41.866;12.462;2023-11-19T08:02:37;101714.78;;;16.22;100.00
43757;BME280;73222;41.866;12.462;2023-11-19T08:05:04;101709.22;;;17.12;92.20
43757;BME280;73222;41.866;12.462;2023-11-19T08:07:29;101724.31;;;17.93;79.68
43757;BME280;73222;41.866;12.462;2023-11-19T08:09:55;101724.84;;;17.25;87.78
43757;BME280;73222;41.866;12.462;2023-11-19T08:12:23;101727.00;;;16.11;96.52
43757;BME280;73222;41.866;12.462;2023-11-19T08:14:48;101728.66;;;15.37;100.00
43757;BME280;73222;41.866;12.462;2023-11-19T08:17:14;101732.78;;;14.69;100.00
43757;BME280;73222;41.866;12.462;2023-11-19T08:19:39;101724.72;;;14.20;100.00
43757;BME280;73222;41.866;12.462;2023-11-19T08:22:05;101725.53;;;14.15;100.00
43757;BME280;73222;41.866;12.462;2023-11-19T08:24:30;101724.66;;;14.10;100.00
43757;BME280;73222;41.866;12.462;2023-11-19T08:26:55;101721.34;;;14.38;100.00
43757;BME280;73222;41.866;12.462;2023-11-19T08:29:21;101718.13;;;14.84;100.00
43757;BME280;73222;41.866;12.462;2023-11-19T08:31:46;101709.34;;;14.69;100.00
43757;BME280;73222;41.866;12.462;2023-11-19T08:34:12;101706.09;;;16.04;100.00
43757;BME280;73222;41.866;12.462;2023-11-19T08:36:37;101705.22;;;15.85;100.00
43757;BME280;73222;41.866;12.462;2023-11-19T08:39:03;101704.53;;;17.58;90.31
43757;BME280;73222;41.866;12.462;2023-11-19T08:41:28;101705.53;;;19.07;73.32
43757;BME280;73222;41.866;12.462;2023-11-19T08:43:53;101698.06;;;20.41;60.41
43757;BME280;73222;41.866;12.462;2023-11-19T08:46:19;101693.09;;;21.11;52.55
43757;BME280;73222;41.866;12.462;2023-11-19T08:48:45;101700.94;;;21.50;48.26
43757;BME280;73222;41.866;12.462;2023-11-19T08:51:11;101707.66;;;22.30;45.27
43757;BME280;73222;41.866;12.462;2023-11-19T08:53:38;101705.16;;;23.44;40.66
43757;BME280;73222;41.866;12.462;2023-11-19T08:56:04;101699.63;;;23.78;38.66
43757;BME280;73222;41.866;12.462;2023-11-19T08:58:29;101699.84;;;24.46;37.84
43757;BME280;73222;41.866;12.462;2023-11-19T09:00:55;101710.31;;;24.73;36.22
43757;BME280;73222;41.866;12.462;2023-11-19T09:03:21;101712.44;;;26.56;34.33
43757;BME280;73222;41.866;12.462;2023-11-19T09:05:46;101722.91;;;26.19;33.64
43757;BME280;73222;41.866;12.462;2023-11-19T09:08:12;101726.22;;;24.49;35.54
43757;BME280;73222;41.866;12.462;2023-11-19T09:10:37;101724.47;;;22.88;38.45
43757;BME280;73222;41.866;12.462;2023-11-19T09:13:03;101717.66;;;21.84;43.06
43757;BME280;73222;41.866;12.462;2023-11-19T09:15:29;101716.16;;;20.99;50.94
43757;BME280;73222;41.866;12.462;2023-11-19T09:17:54;101714.19;;;20.23;56.36
43757;BME280;73222;41.866;12.462;2023-11-19T09:20:20;101719.78;;;19.50;65.87
43757;BME280;73222;41.866;12.462;2023-11-19T09:22:45;101721.00;;;18.60;69.93
43757;BME280;73222;41.866;12.462;2023-11-19T09:25:11;101723.09;;;20.15;67.81
43757;BME280;73222;41.866;12.462;2023-11-19T09:27:36;101726.16;;;22.29;48.15
43757;BME280;73222;41.866;12.462;2023-11-19T09:30:02;101717.16;;;24.31;39.88
43757;BME280;73222;41.866;12.462;2023-11-19T09:32:29;101714.56;;;24.77;37.80
43757;BME280;73222;41.866;12.462;2023-11-19T09:34:54;101714.41;;;26.51;34.35
43757;BME280;73222;41.866;12.462;2023-11-19T09:37:19;101712.63;;;26.12;33.38
43757;BME280;73222;41.866;12.462;2023-11-19T09:39:45;101724.63;;;26.41;33.71
43757;BME280;73222;41.866;12.462;2023-11-19T09:42:11;101721.00;;;27.19;31.79
43757;BME280;73222;41.866;12.462;2023-11-19T09:44:38;101718.88;;;27.63;31.49
43757;BME280;73222;41.866;12.462;2023-11-19T09:47:07;101720.53;;;28.83;30.65
43757;BME280;73222;41.866;12.462;2023-11-19T09:49:35;101717.94;;;27.64;30.86
43757;BME280;73222;41.866;12.462;2023-11-19T09:52:01;101722.13;;;27.86;30.56
43757;BME280;73222;41.866;12.462;2023-11-19T09:54:28;101715.75;;;26.22;32.83
43757;BME280;73222;41.866;12.462;2023-11-19T09:56:55;101720.78;;;24.76;36.64
43757;BME280;73222;41.866;12.462;2023-11-19T09:59:25;101724.22;;;24.78;39.10
43757;BME280;73222;41.866;12.462;2023-11-19T10:01:50;101717.56;;;24.20;38.33
43757;BME280;73222;41.866;12.462;2023-11-19T10:04:17;101709.59;;;22.85;43.48
43757;BME280;73222;41.866;12.462;2023-11-19T10:06:44;101703.69;;;22.47;47.25
43757;BME280;73222;41.866;12.462;2023-11-19T10:09:09;101698.47;;;22.44;49.05
43757;BME280;73222;41.866;12.462;2023-11-19T10:11:36;101702.03;;;21.40;59.00
43757;BME280;73222;41.866;12.462;2023-11-19T10:14:02;101700.00;;;21.15;59.76
43757;BME280;73222;41.866;12.462;2023-11-19T10:16:28;101698.13;;;21.20;60.80
43757;BME280;73222;41.866;12.462;2023-11-19T10:18:55;101697.59;;;21.04;62.57
43757;BME280;73222;41.866;12.462;2023-11-19T10:21:21;101695.38;;;20.87;65.15
43757;BME280;73222;41.866;12.462;2023-11-19T10:23:54;101694.06;;;20.22;73.77
43757;BME280;73222;41.866;12.462;2023-11-19T10:26:22;101685.91;;;19.87;77.65
43757;BME280;73222;41.866;12.462;2023-11-19T10:28:48;101681.47;;;19.39;81.77
43757;BME280;73222;41.866;12.462;2023-11-19T10:31:18;101677.94;;;18.78;90.39
43757;BME280;73222;41.866;12.462;2023-11-19T10:33:44;101677.22;;;18.67;93.69
43757;BME280;73222;41.866;12.462;2023-11-19T10:36:13;101674.38;;;18.83;90.80
43757;BME280;73222;41.866;12.462;2023-11-19T10:38:40;101667.91;;;18.44;95.15
43757;BME280;73222;41.866;12.462;2023-11-19T10:41:06;101662.28;;;18.72;92.85
43757;BME280;73222;41.866;12.462;2023-11-19T10:43:42;101662.47;;;18.60;96.15
43757;BME280;73222;41.866;12.462;2023-11-19T10:46:11;101656.41;;;18.53;95.61
43757;BME280;73222;41.866;12.462;2023-11-19T10:48:37;101655.63;;;18.46;98.68
43757;BME280;73222;41.866;12.462;2023-11-19T10:51:05;101653.19;;;18.32;98.25
43757;BME280;73222;41.866;12.462;2023-11-19T10:53:34;101658.84;;;18.67;97.82
43757;BME280;73222;41.866;12.462;2023-11-19T10:56:02;101649.81;;;18.21;100.00
43757;BME280;73222;41.866;12.462;2023-11-19T10:58:32;101650.47;;;18.40;100.00
43757;BME280;73222;41.866;12.462;2023-11-19T11:01:01;101652.81;;;18.60;100.00
43757;BME280;73222;41.866;12.462;2023-11-19T11:03:37;101643.41;;;18.45;100.00
43757;BME280;73222;41.866;12.462;2023-11-19T11:06:04;101641.31;;;18.72;100.00
43757;BME280;73222;41.866;12.462;2023-11-19T11:08:30;101637.66;;;18.83;100.00
43757;BME280;73222;41.866;12.462;2023-11-19T11:10:57;101634.03;;;18.93;99.44
43757;BME280;73222;41.866;12.462;2023-11-19T11:13:26;101635.91;;;19.91;94.40
43757;BME280;73222;41.866;12.462;2023-11-19T11:15:57;101624.16;;;21.31;77.99
43757;BME280;73222;41.866;12.462;2023-11-19T11:18:26;101629.44;;;21.30;76.46
43757;BME280;73222;41.866;12.462;2023-11-19T11:21:00;101632.22;;;20.87;80.92
43757;BME280;73222;41.866;12.462;2023-11-19T11:29:09;101624.34;;;20.02;90.37
43757;BME280;73222;41.866;12.462;2023-11-19T11:37:19;101612.50;;;20.66;86.47
43757;BME280;73222;41.866;12.462;2023-11-19T11:39:47;101614.63;;;20.48;89.06
43757;BME280;73222;41.866;12.462;2023-11-19T11:44:59;101602.56;;;20.39;90.40
43757;BME280;73222;41.866;12.462;2023-11-19T11:50:12;101595.69;;;20.32;91.73
43757;BME280;73222;41.866;12.462;2023-11-19T11:55:28;101592.16;;;20.72;91.57
43757;BME280;73222;41.866;12.462;2023-11-19T11:57:55;101594.69;;;20.38;94.24
43757;BME280;73222;41.866;12.462;2023-11-19T12:00:30;101591.97;;;20.41;93.40
43757;BME280;73222;41.866;12.462;2023-11-19T12:03:00;101587.06;;;21.04;90.13
43757;BME280;73222;41.866;12.462;2023-11-19T12:05:27;101584.19;;;23.26;67.64
43757;BME280;73222;41.866;12.462;2023-11-19T12:08:04;101582.38;;;22.74;73.95
43757;BME280;73222;41.866;12.462;2023-11-19T12:10:32;101580.53;;;22.76;74.00
43757;BME280;73222;41.866;12.462;2023-11-19T12:13:05;101576.59;;;22.32;75.75
43757;BME280;73222;41.866;12.462;2023-11-19T12:15:32;101574.75;;;22.64;78.27
43757;BME280;73222;41.866;12.462;2023-11-19T12:17:58;101573.88;;;22.64;80.65
43757;BME280;73222;41.866;12.462;2023-11-19T12:20:25;101556.13;;;22.10;87.89
43757;BME280;73222;41.866;12.462;2023-11-19T12:22:55;101549.88;;;21.51;94.46
43757;BME280;73222;41.866;12.462;2023-11-19T12:25:20;101549.59;;;20.94;100.00
43757;BME280;73222;41.866;12.462;2023-11-19T12:27:48;101550.78;;;20.41;100.00
43757;BME280;73222;41.866;12.462;2023-11-19T12:30:24;101547.06;;;20.11;100.00
43757;BME280;73222;41.866;12.462;2023-11-19T12:32:50;101545.03;;;19.81;100.00
43757;BME280;73222;41.866;12.462;2023-11-19T12:35:16;101544.81;;;19.45;100.00
43757;BME280;73222;41.866;12.462;2023-11-19T12:37:45;101532.50;;;19.48;100.00
43757;BME280;73222;41.866;12.462;2023-11-19T12:40:18;101523.59;;;19.08;100.00
43757;BME280;73222;41.866;12.462;2023-11-19T12:42:48;101523.00;;;19.43;100.00
43757;BME280;73222;41.866;12.462;2023-11-19T12:45:14;101525.63;;;19.41;100.00
43757;BME280;73222;41.866;12.462;2023-11-19T12:47:41;101525.16;;;19.19;100.00
43757;BME280;73222;41.866;12.462;2023-11-19T12:50:08;101520.03;;;19.13;100.00
43757;BME280;73222;41.866;12.462;2023-11-19T12:52:34;101516.22;;;18.76;100.00
43757;BME280;73222;41.866;12.462;2023-11-19T12:55:00;101519.84;;;18.68;100.00
43757;BME280;73222;41.866;12.462;2023-11-19T12:57:42;101509.34;;;18.68;100.00